createdAt,value
2017-08-05T00:01:53.129Z,8.37
2017-08-05T00:04:20.572Z,6.83
2017-08-05T00:06:48.836Z,7.83
2017-08-05T00:09:16.372Z,8.10
2017-08-05T00:11:43.823Z,6.60
2017-08-05T00:14:11.285Z,8.90
2017-08-05T00:16:38.749Z,12.97
2017-08-05T00:19:06.313Z,7.97
2017-08-05T00:21:33.775Z,8.93
2017-08-05T00:24:01.226Z,8.30
2017-08-05T00:26:28.773Z,9.60
2017-08-05T00:28:56.216Z,8.90
2017-08-05T00:31:23.687Z,8.13
2017-08-05T00:33:51.135Z,9.00
2017-08-05T00:36:18.596Z,8.97
2017-08-05T00:38:46.053Z,5.97
2017-08-05T00:41:13.495Z,6.37
2017-08-05T00:43:40.988Z,7.90
2017-08-05T00:46:08.442Z,10.27
2017-08-05T00:48:35.888Z,6.43
2017-08-05T00:51:03.371Z,5.80
2017-08-05T00:53:31.585Z,9.30
2017-08-05T00:55:59.028Z,7.00
2017-08-05T00:58:26.790Z,7.03
2017-08-05T01:00:54.293Z,6.47
2017-08-05T01:03:21.745Z,6.33
2017-08-05T01:05:49.300Z,9.57
2017-08-05T01:08:16.761Z,4.80
2017-08-05T01:10:44.240Z,4.83
2017-08-05T01:13:11.687Z,5.07
2017-08-05T01:15:39.124Z,7.33
2017-08-05T01:18:06.600Z,5.77
2017-08-05T01:20:34.854Z,7.87
2017-08-05T01:23:02.312Z,10.57
2017-08-05T01:25:29.869Z,6.00
2017-08-05T01:27:57.334Z,6.90
2017-08-05T01:30:24.879Z,7.77
2017-08-05T01:32:52.350Z,4.10
2017-08-05T01:35:20.622Z,8.70
2017-08-05T01:37:48.099Z,7.40
2017-08-05T01:40:16.320Z,7.30
2017-08-05T01:42:43.803Z,5.03
2017-08-05T01:45:11.259Z,4.90
2017-08-05T01:47:38.719Z,6.87
2017-08-05T01:50:06.280Z,5.20
2017-08-05T01:52:33.720Z,7.40
2017-08-05T01:55:01.287Z,4.27
2017-08-05T01:57:28.738Z,7.40
2017-08-05T01:59:56.199Z,4.30
2017-08-05T02:02:23.678Z,4.47
2017-08-05T02:04:51.113Z,4.90
2017-08-05T02:07:18.608Z,4.13
2017-08-05T02:09:46.812Z,4.83
2017-08-05T02:12:14.259Z,6.23
2017-08-05T02:14:41.767Z,6.00
2017-08-05T02:17:09.207Z,5.80
2017-08-05T02:19:36.654Z,6.77
2017-08-05T02:22:04.130Z,6.50
2017-08-05T02:24:31.568Z,6.20
2017-08-05T02:26:59.040Z,5.17
2017-08-05T02:29:26.543Z,4.70
2017-08-05T02:31:54.763Z,6.20
2017-08-05T02:34:22.207Z,6.90
2017-08-05T02:36:49.660Z,5.37
2017-08-05T02:39:17.136Z,5.83
2017-08-05T02:41:44.575Z,6.67
2017-08-05T02:44:12.013Z,8.10
2017-08-05T02:46:39.500Z,5.47
2017-08-05T02:49:06.959Z,6.80
2017-08-05T02:51:34.436Z,5.77
2017-08-05T02:54:01.983Z,6.17
2017-08-05T02:56:29.435Z,6.10
2017-08-05T02:58:56.903Z,4.30
2017-08-05T03:01:24.355Z,5.87
2017-08-05T03:03:51.785Z,5.87
2017-08-05T03:06:19.349Z,6.43
2017-08-05T03:08:46.779Z,5.63
2017-08-05T03:11:14.272Z,4.63
2017-08-05T03:13:41.746Z,7.83
2017-08-05T03:16:09.967Z,8.00
2017-08-05T03:18:37.413Z,4.47
2017-08-05T03:21:04.884Z,4.50
2017-08-05T03:23:32.356Z,5.13
2017-08-05T03:25:59.823Z,7.17
2017-08-05T03:28:27.731Z,8.90
2017-08-05T03:30:55.177Z,4.20
2017-08-05T03:33:23.422Z,6.30
2017-08-05T03:35:50.869Z,6.33
2017-08-05T03:38:18.311Z,8.50
2017-08-05T03:40:45.820Z,6.23
2017-08-05T03:43:14.036Z,6.73
2017-08-05T03:45:41.503Z,7.87
2017-08-05T03:48:08.977Z,9.90
2017-08-05T03:50:36.415Z,6.97
2017-08-05T03:53:03.895Z,6.10
2017-08-05T03:55:31.357Z,6.10
2017-08-05T03:57:58.799Z,9.97
2017-08-05T04:00:26.360Z,8.50
2017-08-05T04:02:53.811Z,7.47
2017-08-05T04:05:21.248Z,4.27
2017-08-05T04:07:48.727Z,7.23
2017-08-05T04:10:16.183Z,4.97
2017-08-05T04:12:43.648Z,4.80
2017-08-05T04:15:11.083Z,5.47
2017-08-05T04:17:38.555Z,4.73
2017-08-05T04:20:06.023Z,7.73
2017-08-05T04:22:33.567Z,8.27
2017-08-05T04:25:01.024Z,11.87
2017-08-05T04:27:28.496Z,6.27
2017-08-05T04:29:55.944Z,7.70
2017-08-05T04:32:23.376Z,6.83
2017-08-05T04:34:50.854Z,5.73
2017-08-05T04:37:18.414Z,4.43
2017-08-05T04:39:45.893Z,5.07
2017-08-05T04:42:14.135Z,6.27
2017-08-05T04:44:41.585Z,6.50
2017-08-05T04:47:09.040Z,7.13
2017-08-05T04:49:36.483Z,7.83
2017-08-05T04:52:04.061Z,7.13
2017-08-05T04:54:31.499Z,5.70
2017-08-05T04:56:58.938Z,5.47
2017-08-05T04:59:26.407Z,4.43
2017-08-05T05:01:53.928Z,4.90
2017-08-05T05:04:21.448Z,6.67
2017-08-05T05:06:48.924Z,4.93
2017-08-05T05:09:17.141Z,5.37
2017-08-05T05:11:44.704Z,9.10
2017-08-05T05:14:12.157Z,6.63
2017-08-05T05:16:39.615Z,4.40
2017-08-05T05:19:07.117Z,7.50
2017-08-05T05:21:34.555Z,7.63
2017-08-05T05:24:02.021Z,4.13
2017-08-05T05:26:29.464Z,5.60
2017-08-05T05:28:56.961Z,5.60
2017-08-05T05:31:25.192Z,6.53
2017-08-05T05:33:52.632Z,5.73
2017-08-05T05:36:20.101Z,5.67
2017-08-05T05:38:47.553Z,5.67
2017-08-05T05:41:15.124Z,5.37
2017-08-05T05:43:42.568Z,6.07
2017-08-05T05:46:10.031Z,4.80
2017-08-05T05:48:37.522Z,4.00
2017-08-05T05:51:05.087Z,5.40
2017-08-05T05:53:33.319Z,6.63
2017-08-05T05:56:00.801Z,5.70
2017-08-05T05:58:28.349Z,7.07
2017-08-05T06:00:55.823Z,5.07
2017-08-05T06:03:24.178Z,5.57
2017-08-05T06:05:51.671Z,5.20
2017-08-05T06:08:19.873Z,4.60
2017-08-05T06:10:47.374Z,4.73
2017-08-05T06:13:14.811Z,3.63
2017-08-05T06:15:42.266Z,5.13
2017-08-05T06:18:09.738Z,4.40
2017-08-05T06:20:37.208Z,5.17
2017-08-05T06:23:05.480Z,7.13
2017-08-05T06:25:32.932Z,3.73
2017-08-05T06:28:00.471Z,3.50
2017-08-05T06:30:27.919Z,5.67
2017-08-05T06:32:55.391Z,5.10
2017-08-05T06:35:22.951Z,5.10
2017-08-05T06:37:50.407Z,5.50
2017-08-05T06:40:17.965Z,7.07
2017-08-05T06:42:45.415Z,16.03
2017-08-05T06:45:12.875Z,12.97
2017-08-05T06:47:40.360Z,11.93
2017-08-05T06:50:08.596Z,13.13
2017-08-05T06:52:36.024Z,9.40
2017-08-05T06:55:03.520Z,8.63
2017-08-05T06:57:30.962Z,6.20
2017-08-05T06:59:58.543Z,6.07
2017-08-05T07:02:26.112Z,6.10
2017-08-05T07:04:54.380Z,5.03
2017-08-05T07:07:21.843Z,5.93
2017-08-05T07:09:49.368Z,4.00
2017-08-05T07:12:16.856Z,5.50
2017-08-05T07:14:44.299Z,5.07
2017-08-05T07:17:11.771Z,4.40
2017-08-05T07:19:40.038Z,4.70
2017-08-05T07:22:07.484Z,7.10
2017-08-05T07:24:34.937Z,4.50
2017-08-05T07:27:02.401Z,3.53
2017-08-05T07:29:29.871Z,4.20
2017-08-05T07:31:58.092Z,4.73
2017-08-05T07:34:25.581Z,8.23
2017-08-05T07:36:53.133Z,6.60
2017-08-05T07:39:20.587Z,6.63
2017-08-05T07:41:48.039Z,5.03
2017-08-05T07:44:15.499Z,3.87
2017-08-05T07:46:42.964Z,6.57
2017-08-05T07:49:10.418Z,2.87
2017-08-05T07:51:37.879Z,3.00
2017-08-05T07:54:05.423Z,5.53
2017-08-05T07:56:32.908Z,3.90
2017-08-05T07:59:01.116Z,5.07
2017-08-05T08:01:28.596Z,3.90
2017-08-05T08:03:56.082Z,11.10
2017-08-05T08:06:23.541Z,3.03
2017-08-05T08:08:50.991Z,3.77
2017-08-05T08:11:18.586Z,3.60
2017-08-05T08:13:46.040Z,4.07
2017-08-05T08:16:13.585Z,5.60
2017-08-05T08:18:41.835Z,4.60
2017-08-05T08:21:09.278Z,3.77
2017-08-05T08:23:36.710Z,2.60
2017-08-05T08:26:04.193Z,4.33
2017-08-05T08:28:31.761Z,5.20
2017-08-05T08:30:59.217Z,3.27
2017-08-05T08:33:26.671Z,3.50
2017-08-05T08:35:54.169Z,4.47
2017-08-05T08:38:22.368Z,7.07
2017-08-05T08:40:50.524Z,4.77
2017-08-05T08:43:17.957Z,5.20
2017-08-05T08:45:46.206Z,3.10
2017-08-05T08:48:13.790Z,4.13
2017-08-05T08:50:42.003Z,6.43
2017-08-05T08:53:09.461Z,3.40
2017-08-05T08:55:36.954Z,6.73
2017-08-05T08:58:04.516Z,2.97
2017-08-05T09:00:31.995Z,3.17
2017-08-05T09:03:00.220Z,3.03
2017-08-05T09:05:27.700Z,2.50
2017-08-05T09:07:55.567Z,3.30
2017-08-05T09:10:23.138Z,2.73
2017-08-05T09:12:50.615Z,4.60
2017-08-05T09:15:18.067Z,3.77
2017-08-05T09:17:46.268Z,4.40
2017-08-05T09:20:13.756Z,7.80
2017-08-05T09:22:41.215Z,3.87
2017-08-05T09:25:08.697Z,5.27
2017-08-05T09:27:36.151Z,2.63
2017-08-05T09:30:03.588Z,3.03
2017-08-05T09:32:31.063Z,3.00
2017-08-05T09:34:58.497Z,3.27
2017-08-05T09:37:26.008Z,7.80
2017-08-05T09:39:54.340Z,4.70
2017-08-05T09:42:21.792Z,5.70
2017-08-05T09:44:49.279Z,3.10
2017-08-05T09:47:17.485Z,5.40
2017-08-05T09:49:45.355Z,2.50
2017-08-05T09:52:12.813Z,3.30
2017-08-05T09:54:40.268Z,4.23
2017-08-05T09:57:07.774Z,2.40
2017-08-05T09:59:35.304Z,2.63
2017-08-05T10:02:02.752Z,2.10
2017-08-05T10:04:30.320Z,4.90
2017-08-05T10:06:57.776Z,2.80
2017-08-05T10:09:25.216Z,4.90
2017-08-05T10:11:52.705Z,4.70
2017-08-05T10:14:20.179Z,2.97
2017-08-05T10:16:47.637Z,2.10
2017-08-05T10:19:15.901Z,2.33
2017-08-05T10:21:43.452Z,2.47
2017-08-05T10:24:10.937Z,2.07
2017-08-05T10:26:38.383Z,1.63
2017-08-05T10:29:06.606Z,2.00
2017-08-05T10:31:34.073Z,4.17
2017-08-05T10:34:01.549Z,2.23
2017-08-05T10:36:29.019Z,2.57
2017-08-05T10:38:58.090Z,1.60
2017-08-05T10:41:25.524Z,1.70
2017-08-05T10:43:52.995Z,3.20
2017-08-05T10:46:20.441Z,2.10
2017-08-05T10:48:47.883Z,2.30
2017-08-05T10:51:15.395Z,2.50
2017-08-05T10:53:42.849Z,1.80
2017-08-05T10:56:10.324Z,1.40
2017-08-05T10:58:37.846Z,1.67
2017-08-05T11:01:05.401Z,3.20
2017-08-05T11:03:32.867Z,2.20
2017-08-05T11:06:00.411Z,1.40
2017-08-05T11:08:28.692Z,1.53
2017-08-05T11:10:56.204Z,2.00
2017-08-05T11:13:23.704Z,3.27
2017-08-05T11:15:51.366Z,2.13
2017-08-05T11:18:18.807Z,2.20
2017-08-05T11:20:46.257Z,3.57
2017-08-05T11:23:13.740Z,4.13
2017-08-05T11:25:41.182Z,2.97
2017-08-05T11:28:08.649Z,2.13
2017-08-05T11:30:36.317Z,3.63
2017-08-05T11:33:03.787Z,2.53
2017-08-05T11:35:32.017Z,2.17
2017-08-05T11:37:59.499Z,1.77
2017-08-05T11:40:26.982Z,2.73
2017-08-05T11:42:55.213Z,2.00
2017-08-05T11:45:22.641Z,1.83
2017-08-05T11:47:50.126Z,2.53
2017-08-05T11:50:17.969Z,1.63
2017-08-05T11:52:45.428Z,3.20
2017-08-05T11:55:12.916Z,2.10
2017-08-05T11:57:40.441Z,2.97
2017-08-05T12:00:07.881Z,1.90
2017-08-05T12:02:35.352Z,2.63
2017-08-05T12:05:02.820Z,1.83
2017-08-05T12:07:30.303Z,2.53
2017-08-05T12:09:57.896Z,1.87
2017-08-05T12:12:25.345Z,2.03
2017-08-05T12:14:53.580Z,2.60
2017-08-05T12:17:21.036Z,3.10
2017-08-05T12:19:48.509Z,1.90
2017-08-05T12:22:15.976Z,2.00
2017-08-05T12:24:44.232Z,1.53
2017-08-05T12:27:11.700Z,1.10
2017-08-05T12:29:39.168Z,2.30
2017-08-05T12:32:07.441Z,2.20
2017-08-05T12:34:34.860Z,2.43
2017-08-05T12:37:02.314Z,1.40
2017-08-05T12:39:29.796Z,2.63
2017-08-05T12:41:57.244Z,1.80
2017-08-05T12:44:24.729Z,1.50
2017-08-05T12:46:52.940Z,1.30
2017-08-05T12:49:20.380Z,1.50
2017-08-05T12:51:47.892Z,1.80
2017-08-05T12:54:15.341Z,2.23
2017-08-05T12:56:42.845Z,2.97
2017-08-05T12:59:10.291Z,1.90
2017-08-05T13:01:38.504Z,4.00
2017-08-05T13:04:05.963Z,2.10
2017-08-05T13:06:33.421Z,2.27
2017-08-05T13:09:00.929Z,3.17
2017-08-05T13:11:29.137Z,3.77
2017-08-05T13:13:56.587Z,2.93
2017-08-05T13:16:24.112Z,3.43
2017-08-05T13:18:52.330Z,2.77
2017-08-05T13:21:19.797Z,5.30
2017-08-05T13:23:47.237Z,3.20
2017-08-05T13:26:14.716Z,3.47
2017-08-05T13:28:42.193Z,5.23
2017-08-05T13:31:09.630Z,10.30
2017-08-05T13:33:37.095Z,4.10
2017-08-05T13:36:04.547Z,2.23
2017-08-05T13:38:32.045Z,3.57
2017-08-05T13:40:59.501Z,3.13
2017-08-05T13:43:27.728Z,3.73
2017-08-05T13:45:55.317Z,1.63
2017-08-05T13:48:22.760Z,1.97
2017-08-05T13:50:50.239Z,2.70
2017-08-05T13:53:18.450Z,2.10
2017-08-05T13:55:45.929Z,1.83
2017-08-05T13:58:13.421Z,2.20
2017-08-05T14:00:41.636Z,2.10
2017-08-05T14:03:09.080Z,2.00
2017-08-05T14:05:36.548Z,2.60
2017-08-05T14:08:04.003Z,1.20
2017-08-05T14:10:31.447Z,1.40
2017-08-05T14:12:58.923Z,2.30
2017-08-05T14:15:26.371Z,1.20
2017-08-05T14:17:53.808Z,1.60
2017-08-05T14:20:21.307Z,3.77
2017-08-05T14:22:48.772Z,2.80
2017-08-05T14:25:16.268Z,1.23
2017-08-05T14:27:44.518Z,2.13
2017-08-05T14:30:12.003Z,2.03
2017-08-05T14:32:39.457Z,2.83
2017-08-05T14:35:06.904Z,1.53
2017-08-05T14:37:35.148Z,1.13
2017-08-05T14:40:02.609Z,1.47
2017-08-05T14:42:30.072Z,2.37
2017-08-05T14:44:57.639Z,1.30
2017-08-05T14:47:25.100Z,1.40
2017-08-05T14:49:53.368Z,1.90
2017-08-05T14:52:20.929Z,1.40
2017-08-05T14:54:49.184Z,1.70
2017-08-05T14:57:16.653Z,1.20
2017-08-05T14:59:44.100Z,1.80
2017-08-05T15:02:11.573Z,1.70
2017-08-05T15:04:39.862Z,1.57
2017-08-05T15:07:08.064Z,1.60
2017-08-05T15:09:35.587Z,3.30
2017-08-05T15:12:03.053Z,1.40
2017-08-05T15:14:31.292Z,2.13
2017-08-05T15:16:58.745Z,1.93
2017-08-05T15:19:26.195Z,2.27
2017-08-05T15:21:53.764Z,2.23
2017-08-05T15:24:21.212Z,2.00
2017-08-05T15:26:48.650Z,1.80
2017-08-05T15:29:16.156Z,1.50
2017-08-05T15:31:44.391Z,1.60
2017-08-05T15:34:11.983Z,2.13
2017-08-05T15:36:39.452Z,1.50
2017-08-05T15:39:07.692Z,1.40
2017-08-05T15:41:35.147Z,1.50
2017-08-05T15:44:02.644Z,2.60
2017-08-05T15:46:30.093Z,2.10
2017-08-05T15:48:58.646Z,1.70
2017-08-05T15:51:26.105Z,1.70
2017-08-05T15:53:53.543Z,1.40
2017-08-05T15:56:21.015Z,1.57
2017-08-05T15:58:48.455Z,3.37
2017-08-05T16:01:15.951Z,1.50
2017-08-05T16:03:44.159Z,2.87
2017-08-05T16:06:11.648Z,3.00
2017-08-05T16:08:39.227Z,1.63
2017-08-05T16:11:06.691Z,1.33
2017-08-05T16:13:34.177Z,1.40
2017-08-05T16:16:01.644Z,3.10
2017-08-05T16:18:29.088Z,2.20
2017-08-05T16:20:56.608Z,1.70
2017-08-05T16:23:24.062Z,2.60
2017-08-05T16:25:51.516Z,2.40
2017-08-05T16:28:18.984Z,3.67
2017-08-05T16:30:46.451Z,1.40
2017-08-05T16:33:14.679Z,1.93
2017-08-05T16:35:42.138Z,3.37
2017-08-05T16:38:09.604Z,2.07
2017-08-05T16:40:37.165Z,2.63
2017-08-05T16:43:04.616Z,2.17
2017-08-05T16:45:32.113Z,2.93
2017-08-05T16:48:00.340Z,1.50
2017-08-05T16:50:27.795Z,1.87
2017-08-05T16:52:55.306Z,2.80
2017-08-05T16:55:23.537Z,3.53
2017-08-05T16:57:50.999Z,2.57
2017-08-05T17:00:18.555Z,2.23
2017-08-05T17:02:46.016Z,3.10
2017-08-05T17:05:13.495Z,2.37
2017-08-05T17:07:40.983Z,3.50
2017-08-05T17:10:08.493Z,1.70
2017-08-05T17:12:36.796Z,1.87
2017-08-05T17:15:05.038Z,1.67
2017-08-05T17:17:32.590Z,2.57
2017-08-05T17:20:00.085Z,2.07
2017-08-05T17:22:28.319Z,2.40
2017-08-05T17:24:55.768Z,2.07
2017-08-05T17:27:23.235Z,1.47
2017-08-05T17:29:50.676Z,2.87
2017-08-05T17:32:18.129Z,1.93
2017-08-05T17:34:45.616Z,5.10
2017-08-05T17:37:13.083Z,1.90
2017-08-05T17:39:41.320Z,1.70
2017-08-05T17:42:08.772Z,2.80
2017-08-05T17:44:36.228Z,2.07
2017-08-05T17:47:03.707Z,2.07
2017-08-05T17:49:31.177Z,1.60
2017-08-05T17:51:59.438Z,1.40
2017-08-05T17:54:26.928Z,2.87
2017-08-05T17:56:54.378Z,4.23
2017-08-05T17:59:21.858Z,2.00
2017-08-05T18:01:49.322Z,1.70
2017-08-05T18:04:16.769Z,1.60
2017-08-05T18:06:44.272Z,2.37
2017-08-05T18:09:11.731Z,2.33
2017-08-05T18:11:39.195Z,1.60
2017-08-05T18:14:06.700Z,3.20
2017-08-05T18:16:34.175Z,1.70
2017-08-05T18:19:01.676Z,1.50
2017-08-05T18:21:29.915Z,2.50
2017-08-05T18:23:57.442Z,2.17
2017-08-05T18:26:24.953Z,2.13
2017-08-05T18:28:52.408Z,1.50
2017-08-05T18:31:19.885Z,2.60
2017-08-05T18:33:48.123Z,1.50
2017-08-05T18:36:15.612Z,4.40
2017-08-05T18:38:43.077Z,1.70
2017-08-05T18:41:11.276Z,1.50
2017-08-05T18:43:38.772Z,1.57
2017-08-05T18:46:06.226Z,1.60
2017-08-05T18:48:33.727Z,2.37
2017-08-05T18:51:02.062Z,1.73
2017-08-05T18:53:29.519Z,1.30
2017-08-05T18:55:56.973Z,1.10
2017-08-05T18:58:24.463Z,1.50
2017-08-05T19:00:52.697Z,1.30
2017-08-05T19:03:20.265Z,2.00
2017-08-05T19:05:47.751Z,2.27
2017-08-05T19:08:16.800Z,1.43
2017-08-05T19:10:44.276Z,1.10
2017-08-05T19:13:11.757Z,1.57
2017-08-05T19:15:39.199Z,2.13
2017-08-05T19:18:06.727Z,3.63
2017-08-05T19:20:34.184Z,1.27
2017-08-05T19:23:01.797Z,1.30
2017-08-05T19:25:30.046Z,1.73
2017-08-05T19:27:57.507Z,1.77
2017-08-05T19:30:24.976Z,1.93
2017-08-05T19:32:53.194Z,2.07
2017-08-05T19:35:20.637Z,1.77
2017-08-05T19:37:48.127Z,1.60
2017-08-05T19:40:15.611Z,1.10
2017-08-05T19:42:43.095Z,2.73
2017-08-05T19:45:10.581Z,1.80
2017-08-05T19:47:38.094Z,2.37
2017-08-05T19:50:06.339Z,2.03
2017-08-05T19:52:33.790Z,1.70
2017-08-05T19:55:01.278Z,2.43
2017-08-05T19:57:29.532Z,1.10
2017-08-05T19:59:56.983Z,1.83
2017-08-05T20:02:24.456Z,1.70
2017-08-05T20:04:51.894Z,1.30
2017-08-05T20:07:19.341Z,2.37
2017-08-05T20:09:46.901Z,1.97
2017-08-05T20:12:14.359Z,2.10
2017-08-05T20:14:41.832Z,2.50
2017-08-05T20:17:09.303Z,1.30
2017-08-05T20:19:37.520Z,2.50
2017-08-05T20:22:04.977Z,2.20
2017-08-05T20:24:32.451Z,1.77
2017-08-05T20:26:59.909Z,2.57
2017-08-05T20:29:27.413Z,1.60
2017-08-05T20:31:55.625Z,1.57
2017-08-05T20:34:23.070Z,2.23
2017-08-05T20:36:50.564Z,2.20
2017-08-05T20:39:18.038Z,2.07
2017-08-05T20:41:46.271Z,1.67
2017-08-05T20:44:13.747Z,1.57
2017-08-05T20:46:41.208Z,1.30
2017-08-05T20:49:08.702Z,2.33
2017-08-05T20:51:36.904Z,1.50
2017-08-05T20:54:04.388Z,2.37
2017-08-05T20:56:31.887Z,4.30
2017-08-05T20:58:59.328Z,2.10
2017-08-05T21:01:27.543Z,2.27
2017-08-05T21:03:55.047Z,2.30
2017-08-05T21:06:22.525Z,1.40
2017-08-05T21:08:50.744Z,2.63
2017-08-05T21:11:18.333Z,1.00
2017-08-05T21:13:45.814Z,1.30
2017-08-05T21:16:14.033Z,1.40
2017-08-05T21:18:41.516Z,2.07
2017-08-05T21:21:08.964Z,3.20
2017-08-05T21:23:36.481Z,1.73
2017-08-05T21:26:03.952Z,1.73
2017-08-05T21:28:31.413Z,1.80
2017-08-05T21:30:58.886Z,1.77
2017-08-05T21:33:26.362Z,1.57
2017-08-05T21:35:53.831Z,6.33
2017-08-05T21:38:22.044Z,1.93
2017-08-05T21:40:49.528Z,1.93
2017-08-05T21:43:16.964Z,3.10
2017-08-05T21:45:44.445Z,2.97
2017-08-05T21:48:11.929Z,3.00
2017-08-05T21:50:40.140Z,1.33
2017-08-05T21:53:07.657Z,1.40
2017-08-05T21:55:35.122Z,1.50
2017-08-05T21:58:03.320Z,1.40
2017-08-05T22:00:30.797Z,1.30
2017-08-05T22:02:58.245Z,1.40
2017-08-05T22:05:25.699Z,1.33
2017-08-05T22:07:53.180Z,1.43
2017-08-05T22:10:20.619Z,2.07
2017-08-05T22:12:48.104Z,1.67
2017-08-05T22:15:15.548Z,2.00
2017-08-05T22:17:43.035Z,1.57
2017-08-05T22:20:10.500Z,1.67
2017-08-05T22:22:38.752Z,1.23
2017-08-05T22:25:06.204Z,1.40
2017-08-05T22:27:33.678Z,1.73
2017-08-05T22:30:02.001Z,2.37
2017-08-05T22:32:29.473Z,3.40
2017-08-05T22:34:57.231Z,1.37
2017-08-05T22:37:24.738Z,2.30
2017-08-05T22:39:52.179Z,3.03
2017-08-05T22:42:19.647Z,2.73
2017-08-05T22:44:47.876Z,4.53
2017-08-05T22:47:15.381Z,4.33
2017-08-05T22:49:43.601Z,3.00
2017-08-05T22:52:11.205Z,2.03
2017-08-05T22:54:38.647Z,2.17
2017-08-05T22:57:06.110Z,3.30
2017-08-05T22:59:33.573Z,1.63
2017-08-05T23:02:01.793Z,1.97
2017-08-05T23:04:29.248Z,2.27
2017-08-05T23:06:56.770Z,1.70
2017-08-05T23:09:25.027Z,2.00
2017-08-05T23:11:52.582Z,1.50
2017-08-05T23:14:20.053Z,2.47
2017-08-05T23:16:48.268Z,2.00
2017-08-05T23:19:15.772Z,1.80
2017-08-05T23:21:43.285Z,1.90
2017-08-05T23:24:10.767Z,1.70
2017-08-05T23:26:38.228Z,2.10
2017-08-05T23:29:05.679Z,1.60
2017-08-05T23:31:33.144Z,2.33
2017-08-05T23:34:00.615Z,1.67
2017-08-05T23:36:28.152Z,2.47
2017-08-05T23:38:55.609Z,1.93
2017-08-05T23:41:23.056Z,2.00
2017-08-05T23:43:50.524Z,4.13
2017-08-05T23:46:18.034Z,3.53
2017-08-05T23:48:45.508Z,1.70
2017-08-05T23:51:12.947Z,2.47
2017-08-05T23:53:40.420Z,4.07
2017-08-05T23:56:07.868Z,1.63
2017-08-05T23:58:35.307Z,1.60
